Time;durP1;ratioP1;P1;durP2;ratioP2;P2;SDS_P1;SDS_P2;PMS_P1;PMS_P2;Temp;Humidity;BMP_temperature;BMP_pressure;BME280_temperature;BME280_humidity;BME280_pressure;Samples;Min_cycle;Max_cycle;Signal;HPM_P1;HPM_P2
2023/12/11 00:01:06;;;;;;;35.90;10.40;;;;;;;5.55;100.00;99081.88;5004395;28;20048;-78
2023/12/11 00:03:31;;;;;;;34.35;8.70;;;;;;;5.72;100.00;99082.63;5005900;28;20044;-80
2023/12/11 00:05:57;;;;;;;37.78;10.52;;;;;;;5.73;100.00;99076.31;5006061;28;20038;-79
2023/12/11 00:08:22;;;;;;;30.83;11.43;;;;;;;5.84;100.00;99075.94;5010442;28;20511;-80
2023/12/11 00:10:47;;;;;;;52.63;13.30;;;;;;;5.77;100.00;99069.69;5003314;28;20040;-78
2023/12/11 00:13:13;;;;;;;39.20;10.63;;;;;;;5.60;100.00;99052.22;5009965;28;20041;-78
2023/12/11 00:15:39;;;;;;;34.37;12.53;;;;;;;5.63;100.00;99054.53;5003544;28;20052;-79
2023/12/11 00:18:05;;;;;;;41.47;11.23;;;;;;;5.65;100.00;99057.84;4991255;28;20795;-81
2023/12/11 00:20:31;;;;;;;33.35;11.15;;;;;;;5.57;100.00;99056.06;4989837;28;20100;-81
2023/12/11 00:22:56;;;;;;;27.63;8.95;;;;;;;5.60;100.00;99054.88;4993313;28;20469;-82
2023/12/11 00:25:22;;;;;;;38.23;10.90;;;;;;;5.50;100.00;99047.97;5005908;28;20062;-80
2023/12/11 00:27:47;;;;;;;34.63;9.93;;;;;;;5.57;100.00;99055.19;5021027;28;20614;-80
2023/12/11 00:30:14;;;;;;;38.72;8.80;;;;;;;5.53;100.00;99048.63;4997875;28;20045;-78
2023/12/11 00:32:40;;;;;;;38.88;11.23;;;;;;;5.45;100.00;99046.81;4980798;28;20037;-80
2023/12/11 00:35:06;;;;;;;31.45;10.63;;;;;;;5.59;100.00;99059.31;4989837;28;20041;-80
2023/12/11 00:37:31;;;;;;;30.55;9.25;;;;;;;5.61;100.00;99052.03;4998368;28;20029;-80
2023/12/11 00:39:57;;;;;;;33.97;9.43;;;;;;;5.52;100.00;99046.94;5010409;28;20914;-81
2023/12/11 00:42:22;;;;;;;34.90;8.68;;;;;;;5.41;100.00;99037.59;4997502;28;20120;-81
2023/12/11 00:44:48;;;;;;;29.63;8.50;;;;;;;5.59;100.00;99047.91;5014421;28;20041;-78
2023/12/11 00:47:13;;;;;;;41.10;9.77;;;;;;;5.69;100.00;99048.56;5014258;28;20377;-79
2023/12/11 00:49:38;;;;;;;31.70;9.10;;;;;;;5.54;100.00;99034.38;4993096;28;20026;-79
2023/12/11 00:52:04;;;;;;;38.23;9.20;;;;;;;5.52;100.00;99031.06;5006764;28;20280;-79
2023/12/11 00:54:30;;;;;;;;;;;;;;;5.56;100.00;99038.50;5010438;28;20038;-81
2023/12/11 00:56:55;;;;;;;29.73;8.65;;;;;;;5.47;100.00;99032.41;5004368;28;19920;-81
2023/12/11 00:59:21;;;;;;;30.70;10.60;;;;;;;5.40;100.00;99031.44;5015184;28;20098;-81
2023/12/11 01:01:46;;;;;;;24.45;8.30;;;;;;;5.43;100.00;99028.47;5007436;28;20048;-80
2023/12/11 01:04:12;;;;;;;34.70;9.40;;;;;;;5.50;100.00;99029.44;5010587;28;20093;-80
2023/12/11 01:06:37;;;;;;;23.27;9.25;;;;;;;5.54;100.00;99034.38;4992928;28;20280;-78
2023/12/11 01:09:03;;;;;;;33.70;9.07;;;;;;;5.50;100.00;99037.38;5012468;28;20041;-78
2023/12/11 01:14:04;;;;;;;23.05;7.88;;;;;;;5.52;100.00;99029.25;4968670;28;20106;-79
2023/12/11 01:16:29;;;;;;;33.22;8.02;;;;;;;5.53;100.00;99022.16;4944356;29;20109;-80
2023/12/11 01:18:55;;;;;;;24.40;8.25;;;;;;;5.34;100.00;99018.91;4928752;28;20035;-79
2023/12/11 01:21:20;;;;;;;25.50;7.80;;;;;;;5.37;100.00;99023.03;4971600;28;20065;-79
2023/12/11 01:23:46;;;;;;;30.70;8.70;;;;;;;5.37;100.00;99018.56;4971066;28;20294;-79
2023/12/11 01:26:11;;;;;;;32.95;9.13;;;;;;;5.42;100.00;99021.50;4976820;28;20301;-79
2023/12/11 01:28:36;;;;;;;33.13;11.03;;;;;;;5.48;100.00;99018.19;4962482;28;20034;-79
2023/12/11 01:31:02;;;;;;;37.93;9.83;;;;;;;5.44;100.00;99019.53;4941673;28;20285;-79
2023/12/11 01:33:28;;;;;;;26.15;8.57;;;;;;;5.42;100.00;99025.97;4960948;28;20068;-79
2023/12/11 01:35:53;;;;;;;29.27;9.30;;;;;;;5.40;100.00;99027.97;4967249;28;20034;-79
2023/12/11 01:38:18;;;;;;;33.17;9.63;;;;;;;5.46;100.00;99028.13;4964599;28;20023;-78
2023/12/11 01:40:44;;;;;;;22.43;8.73;;;;;;;5.56;100.00;99033.22;4940283;28;20801;-79
2023/12/11 01:43:18;;;;;;;22.38;8.38;;;;;;;5.44;100.00;99024.00;4941098;28;20293;-79
2023/12/11 01:46:05;;;;;;;28.35;8.95;;;;;;;5.52;100.00;99021.31;4940706;28;20031;-80
2023/12/11 01:48:32;;;;;;;25.83;9.85;;;;;;;5.38;100.00;99009.59;4930553;28;20520;-79
2023/12/11 01:50:57;;;;;;;30.05;8.25;;;;;;;5.46;100.00;99017.53;4938887;28;20031;-79
2023/12/11 01:53:25;;;;;;;33.05;10.65;;;;;;;5.39;100.00;99013.91;4948025;28;20501;-80
2023/12/11 01:55:51;;;;;;;23.65;8.48;;;;;;;5.54;100.00;99016.66;4955974;28;20035;-79
2023/12/11 01:58:17;;;;;;;25.85;7.97;;;;;;;5.39;100.00;99010.47;4941136;28;20031;-79
2023/12/11 02:00:43;;;;;;;;;;;;;;;5.26;100.00;99006.50;4941336;28;20137;-80
2023/12/11 02:03:09;;;;;;;32.83;10.48;;;;;;;5.34;100.00;99008.31;4940262;28;20017;-80
2023/12/11 02:05:36;;;;;;;25.98;9.98;;;;;;;5.27;100.00;98997.59;4954485;28;20037;-79
2023/12/11 02:08:01;;;;;;;35.78;11.88;;;;;;;5.32;100.00;99005.03;4934164;28;20578;-79
2023/12/11 02:10:27;;;;;;;22.50;8.40;;;;;;;5.38;100.00;99004.31;4967999;28;20375;-79
2023/12/11 02:12:55;;;;;;;26.92;9.68;;;;;;;5.42;100.00;99002.16;4974314;28;20027;-79
2023/12/11 02:15:43;;;;;;;33.97;8.10;;;;;;;5.37;100.00;99007.97;4946797;28;20467;-79
2023/12/11 02:18:09;;;;;;;26.77;9.50;;;;;;;5.45;100.00;99004.47;4933410;28;20039;-79
2023/12/11 02:20:36;;;;;;;30.27;9.23;;;;;;;5.47;100.00;99002.47;4966940;28;20159;-79
2023/12/11 02:23:06;;;;;;;28.45;9.57;;;;;;;5.46;100.00;99001.66;4947050;28;20015;-79
2023/12/11 02:25:35;;;;;;;22.63;7.95;;;;;;;5.53;100.00;99009.72;4940162;28;20039;-80
2023/12/11 02:28:01;;;;;;;20.35;8.10;;;;;;;5.57;100.00;99002.25;4939085;28;20034;-79
2023/12/11 02:30:29;;;;;;;34.88;8.45;;;;;;;5.53;100.00;98998.31;4940063;28;20042;-79
2023/12/11 02:32:54;;;;;;;31.90;9.70;;;;;;;5.50;100.00;98996.81;4939329;28;20046;-79
2023/12/11 02:35:20;;;;;;;42.58;9.52;;;;;;;5.50;100.00;98995.03;4939853;28;20486;-79
2023/12/11 02:37:45;;;;;;;30.63;10.40;;;;;;;5.55;100.00;98986.56;4952620;28;20031;-79
2023/12/11 02:40:11;;;;;;;29.93;8.93;;;;;;;5.55;100.00;98985.72;4940126;28;20051;-79
2023/12/11 02:42:36;;;;;;;29.55;9.90;;;;;;;5.60;100.00;98980.75;4954155;28;20381;-79
2023/12/11 02:45:01;;;;;;;27.60;8.73;;;;;;;5.44;100.00;98974.53;4957138;28;20064;-79
2023/12/11 02:47:27;;;;;;;26.33;9.30;;;;;;;5.44;100.00;98971.88;4948904;28;21205;-79
2023/12/11 02:49:52;;;;;;;30.52;8.52;;;;;;;5.49;100.00;98982.75;4961523;28;20062;-79
2023/12/11 02:52:18;;;;;;;31.67;9.37;;;;;;;5.58;100.00;98980.09;4943109;28;20023;-78
2023/12/11 02:54:43;;;;;;;24.27;8.53;;;;;;;5.47;100.00;98971.53;4944617;28;20677;-79
2023/12/11 02:57:08;;;;;;;31.93;8.60;;;;;;;5.44;100.00;98961.28;4965157;28;20748;-80
2023/12/11 02:59:34;;;;;;;32.80;9.47;;;;;;;5.41;100.00;98953.72;4944093;28;20031;-80
2023/12/11 03:01:59;;;;;;;30.10;9.37;;;;;;;5.46;100.00;98963.78;4938597;28;20294;-80
2023/12/11 03:04:25;;;;;;;27.30;8.43;;;;;;;5.49;100.00;98963.41;4946174;28;20281;-80
2023/12/11 03:06:52;;;;;;;31.38;9.18;;;;;;;5.43;100.00;98954.38;4938146;28;20097;-78
2023/12/11 03:09:17;;;;;;;37.30;9.85;;;;;;;5.38;100.00;98959.31;4946449;28;20034;-79
2023/12/11 03:11:43;;;;;;;24.45;8.10;;;;;;;5.33;100.00;98959.03;4952586;28;20089;-78
2023/12/11 03:14:08;;;;;;;33.30;10.50;;;;;;;5.44;100.00;98969.22;4952619;28;20507;-78
2023/12/11 03:16:33;;;;;;;27.33;8.95;;;;;;;5.37;100.00;98962.97;4957755;28;20078;-79
2023/12/11 03:18:59;;;;;;;24.65;8.45;;;;;;;5.48;100.00;98967.91;4953826;28;20507;-78
2023/12/11 03:21:24;;;;;;;24.88;8.80;;;;;;;5.47;100.00;98966.22;4953775;28;20125;-79
2023/12/11 03:23:50;;;;;;;30.75;10.63;;;;;;;5.43;100.00;98964.09;4937113;28;20466;-79
2023/12/11 03:26:15;;;;;;;24.87;10.37;;;;;;;5.36;100.00;98953.41;4961869;28;20394;-79
2023/12/11 03:28:41;;;;;;;28.83;9.43;;;;;;;5.38;100.00;98954.03;4954551;28;20285;-79
2023/12/11 03:31:06;;;;;;;23.53;8.97;;;;;;;5.44;100.00;98958.66;4954894;28;20027;-80
2023/12/11 03:33:31;;;;;;;33.65;10.95;;;;;;;5.42;100.00;98958.00;4938320;28;21144;-80
2023/12/11 03:35:57;;;;;;;24.48;10.00;;;;;;;5.48;100.00;98954.66;4935663;28;20074;-78
2023/12/11 03:38:22;;;;;;;22.20;8.98;;;;;;;5.46;100.00;98943.41;4954358;28;20136;-80
2023/12/11 03:40:48;;;;;;;28.80;9.43;;;;;;;5.40;100.00;98948.56;4954327;28;20070;-77
2023/12/11 03:54:32;;;;;;;;;;;;;;;;;;;;;
2023/12/11 03:57:23;;;;;;;23.42;9.80;;;;;;;5.33;100.00;98923.81;4793172;29;20088;-78
2023/12/11 03:59:59;;;;;;;30.05;10.85;;;;;;;5.16;100.00;98909.84;4798447;29;20534;-79
2023/12/11 04:02:30;;;;;;;26.30;9.40;;;;;;;5.23;100.00;98931.97;4778869;29;20172;-80
2023/12/11 04:04:56;;;;;;;27.33;9.80;;;;;;;5.33;100.00;98934.38;4799344;29;20102;-79
2023/12/11 04:07:24;;;;;;;29.27;10.43;;;;;;;5.29;100.00;98931.25;4802368;29;20038;-78
2023/12/11 04:09:49;;;;;;;32.47;10.25;;;;;;;5.17;100.00;98930.00;4800336;29;20157;-80
2023/12/11 04:12:15;;;;;;;25.55;8.45;;;;;;;5.34;100.00;98934.22;4797984;29;20035;-81
2023/12/11 04:14:40;;;;;;;26.83;8.75;;;;;;;5.38;100.00;98947.91;4793822;29;20154;-80
2023/12/11 04:17:05;;;;;;;29.40;8.70;;;;;;;5.31;100.00;98945.13;4769526;29;20039;-78
2023/12/11 04:19:31;;;;;;;21.23;8.37;;;;;;;5.33;100.00;98947.63;4799249;29;20433;-81
2023/12/11 04:21:56;;;;;;;40.13;11.02;;;;;;;5.43;100.00;98950.88;4780694;29;20074;-81
2023/12/11 04:24:22;;;;;;;24.40;9.00;;;;;;;5.18;100.00;98929.81;4798280;29;20034;-80
2023/12/11 04:26:47;;;;;;;23.67;8.87;;;;;;;5.34;100.00;98965.13;4846649;29;20049;-81
2023/12/11 04:29:13;;;;;;;25.55;7.90;;;;;;;5.42;100.00;98963.28;4875876;29;20295;-79
2023/12/11 04:31:39;;;;;;;20.67;8.27;;;;;;;5.49;100.00;98964.25;4943210;28;20037;-81
2023/12/11 04:34:05;;;;;;;24.02;8.15;;;;;;;5.45;100.00;98962.09;4968066;28;20030;-80
2023/12/11 04:36:30;;;;;;;27.53;10.03;;;;;;;5.45;100.00;98967.41;4972798;28;20018;-80
2023/12/11 04:38:55;;;;;;;21.63;8.00;;;;;;;5.43;100.00;98954.38;4972761;28;20296;-81
2023/12/11 04:41:21;;;;;;;31.20;10.30;;;;;;;5.43;100.00;98964.09;4971782;28;20773;-81
2023/12/11 04:43:46;;;;;;;20.75;8.30;;;;;;;5.22;100.00;98962.88;4971641;28;20037;-80
2023/12/11 04:46:12;;;;;;;25.23;9.40;;;;;;;5.38;100.00;98961.16;4972494;28;20042;-80
2023/12/11 04:48:37;;;;;;;22.07;8.63;;;;;;;5.47;100.00;98971.53;4968619;28;20133;-81
2023/12/11 04:51:03;;;;;;;24.67;9.67;;;;;;;5.36;100.00;98976.38;4986527;28;20296;-78
2023/12/11 04:53:29;;;;;;;27.85;9.38;;;;;;;5.31;100.00;98963.66;4971738;28;20034;-81
2023/12/11 04:55:54;;;;;;;33.50;10.67;;;;;;;5.40;100.00;98964.44;4966983;28;20122;-80
2023/12/11 04:58:20;;;;;;;29.37;11.37;;;;;;;5.50;100.00;98965.91;4987921;28;20280;-81
2023/12/11 05:00:45;;;;;;;23.92;9.23;;;;;;;5.55;100.00;98969.84;4955762;28;20273;-81
2023/12/11 05:03:11;;;;;;;30.35;10.18;;;;;;;5.59;100.00;98973.78;4955172;28;20039;-80
2023/12/11 05:05:36;;;;;;;26.58;10.35;;;;;;;5.52;100.00;98967.53;4971493;28;20346;-80
2023/12/11 05:08:02;;;;;;;38.50;13.00;;;;;;;5.59;100.00;98979.09;4955662;28;20027;-81
2023/12/11 05:10:28;;;;;;;38.53;13.82;;;;;;;5.51;100.00;98969.38;4955824;28;20030;-79
2023/12/11 05:12:53;;;;;;;37.28;13.48;;;;;;;5.65;100.00;98973.09;4975399;28;20018;-81
2023/12/11 05:15:19;;;;;;;41.25;12.90;;;;;;;5.68;100.00;98973.56;4975840;28;20038;-82
2023/12/11 05:17:44;;;;;;;44.30;14.70;;;;;;;5.76;100.00;98972.72;4959325;28;20066;-79
2023/12/11 05:20:12;;;;;;;36.93;14.50;;;;;;;5.76;100.00;98975.38;4959946;28;20781;-81
2023/12/11 05:22:38;;;;;;;41.05;12.95;;;;;;;5.78;100.00;98968.03;4971926;28;20294;-79
2023/12/11 05:25:04;;;;;;;32.83;13.63;;;;;;;5.80;100.00;98963.41;4988881;28;20042;-80
2023/12/11 05:27:29;;;;;;;38.58;15.65;;;;;;;5.77;100.00;98961.13;4972177;28;20039;-81
2023/12/11 05:29:55;;;;;;;36.77;14.63;;;;;;;5.81;100.00;98951.00;4964343;28;20099;-79
2023/12/11 05:32:20;;;;;;;35.05;12.55;;;;;;;5.83;100.00;98955.13;4991137;28;20045;-80
2023/12/11 05:34:45;;;;;;;29.00;12.43;;;;;;;5.75;100.00;98952.50;4959971;28;20420;-81
2023/12/11 05:37:11;;;;;;;45.03;14.50;;;;;;;5.79;100.00;98961.75;4975137;28;20800;-79
2023/12/11 05:39:36;;;;;;;57.60;17.67;;;;;;;5.76;100.00;98954.19;4955842;28;20034;-80
2023/12/11 05:42:02;;;;;;;51.92;17.33;;;;;;;5.80;100.00;98960.75;4972087;28;20212;-80
2023/12/11 05:44:28;;;;;;;44.15;16.85;;;;;;;5.85;100.00;98966.38;4959403;28;20397;-79
2023/12/11 05:46:53;;;;;;;56.55;20.60;;;;;;;5.87;100.00;98969.63;4975495;28;20393;-79
2023/12/11 05:49:19;;;;;;;62.28;19.27;;;;;;;5.89;100.00;98965.00;4957349;28;20026;-80
2023/12/11 05:51:45;;;;;;;64.82;20.02;;;;;;;5.98;100.00;98971.09;4959082;28;20034;-80
2023/12/11 05:54:10;;;;;;;59.33;17.97;;;;;;;5.91;100.00;98965.66;4953955;28;20500;-80
2023/12/11 05:56:36;;;;;;;76.00;21.00;;;;;;;5.90;100.00;98964.00;4975704;28;20431;-79
2023/12/11 05:59:02;;;;;;;50.05;16.35;;;;;;;5.96;100.00;98962.50;4959255;28;20041;-79
2023/12/11 06:01:29;;;;;;;53.58;18.50;;;;;;;5.96;100.00;98961.69;4974826;28;20129;-79
2023/12/11 06:03:55;;;;;;;86.63;22.08;;;;;;;5.92;100.00;98959.38;4952573;28;20560;-80
2023/12/11 06:06:20;;;;;;;58.22;16.88;;;;;;;5.95;100.00;98967.97;4967119;28;20038;-80
2023/12/11 06:08:45;;;;;;;53.85;17.60;;;;;;;5.93;100.00;98961.00;4959448;28;20069;-80
2023/12/11 06:11:11;;;;;;;54.80;18.25;;;;;;;5.92;100.00;98966.47;4975018;28;20034;-81
2023/12/11 06:13:36;;;;;;;47.75;17.98;;;;;;;5.93;100.00;98966.31;4975432;28;20022;-80
2023/12/11 06:16:02;;;;;;;59.92;17.83;;;;;;;5.95;100.00;98960.88;4958795;28;20625;-80
2023/12/11 06:18:28;;;;;;;59.85;17.70;;;;;;;5.95;100.00;98971.47;4975357;28;20524;-79
2023/12/11 06:20:53;;;;;;;51.42;18.70;;;;;;;5.97;100.00;98964.16;4960018;28;20026;-80
2023/12/11 06:23:21;;;;;;;76.97;20.53;;;;;;;5.95;100.00;98966.16;4966173;28;20502;-79
2023/12/11 06:25:47;;;;;;;55.65;19.38;;;;;;;6.00;100.00;98965.63;4976104;28;20369;-80
2023/12/11 06:28:12;;;;;;;50.43;17.30;;;;;;;5.95;100.00;98968.81;4957348;28;20038;-79
2023/12/11 06:30:38;;;;;;;73.27;20.57;;;;;;;6.01;100.00;98969.94;4947956;28;20354;-78
2023/12/11 06:33:03;;;;;;;76.55;22.00;;;;;;;5.97;100.00;98966.81;4972074;28;20018;-80
2023/12/11 06:35:29;;;;;;;72.45;21.85;;;;;;;6.06;100.00;98970.22;4975492;28;20034;-81
2023/12/11 06:37:54;;;;;;;115.17;24.73;;;;;;;6.03;100.00;98970.56;4959089;28;20089;-80
2023/12/11 06:40:19;;;;;;;55.33;20.93;;;;;;;6.09;100.00;98970.69;4973246;28;20295;-81
2023/12/11 06:42:45;;;;;;;62.45;20.20;;;;;;;6.10;100.00;98966.22;4954318;28;20022;-80
2023/12/11 06:45:12;;;;;;;55.17;20.70;;;;;;;6.14;100.00;98970.16;4955250;28;20061;-81
2023/12/11 06:47:37;;;;;;;59.80;19.23;;;;;;;6.17;100.00;98975.09;4954670;28;20477;-79
2023/12/11 06:50:03;;;;;;;63.80;18.58;;;;;;;6.16;100.00;98969.97;4954531;28;20447;-81
2023/12/11 06:52:29;;;;;;;70.03;21.13;;;;;;;6.14;100.00;98972.81;4973028;28;20034;-81
2023/12/11 06:54:54;;;;;;;68.20;22.17;;;;;;;6.13;100.00;98972.00;4966281;28;20374;-79
2023/12/11 06:57:20;;;;;;;66.00;22.02;;;;;;;6.14;100.00;98972.81;4973303;28;20109;-80
2023/12/11 06:59:46;;;;;;;64.70;21.30;;;;;;;6.12;100.00;98970.34;4972963;28;20030;-80
2023/12/11 07:02:11;;;;;;;73.07;22.45;;;;;;;6.15;100.00;98976.28;4955202;28;20038;-78
2023/12/11 07:04:40;;;;;;;91.22;23.90;;;;;;;6.05;100.00;98968.56;4953944;28;20041;-80
2023/12/11 07:07:06;;;;;;;99.53;24.65;;;;;;;6.01;100.00;98965.44;4972229;28;20038;-80
2023/12/11 07:09:32;;;;;;;63.65;21.27;;;;;;;6.02;100.00;98974.25;4970507;28;20729;-82
2023/12/11 07:14:31;;;;;;;65.47;20.75;;;;;;;6.14;100.00;98975.47;4965751;28;20042;-78
2023/12/11 07:16:56;;;;;;;81.33;24.67;;;;;;;6.13;100.00;98974.66;4937501;28;20495;-78
2023/12/11 07:19:22;;;;;;;71.53;23.03;;;;;;;6.16;100.00;98978.78;4953379;28;20294;-80
2023/12/11 07:21:47;;;;;;;99.20;25.87;;;;;;;6.12;100.00;98977.47;4953007;28;20049;-80
2023/12/11 07:24:13;;;;;;;60.50;20.83;;;;;;;6.16;100.00;98976.13;4935376;28;20290;-81
2023/12/11 07:26:38;;;;;;;85.90;24.98;;;;;;;6.10;100.00;98972.34;4934351;29;20034;-77
2023/12/11 07:29:04;;;;;;;98.00;25.13;;;;;;;5.99;100.00;98969.28;4935150;28;20403;-78
2023/12/11 07:31:30;;;;;;;62.47;21.95;;;;;;;6.09;100.00;98977.84;4967866;28;20031;-78
2023/12/11 07:33:56;;;;;;;69.75;22.33;;;;;;;6.15;100.00;98982.41;4934982;28;20081;-78
2023/12/11 07:36:22;;;;;;;113.97;28.20;;;;;;;6.06;100.00;98981.66;4934988;28;20047;-78
2023/12/11 07:38:49;;;;;;;90.88;25.08;;;;;;;6.07;100.00;98978.00;4919599;29;20177;-79
2023/12/11 07:41:20;;;;;;;99.82;24.52;;;;;;;6.10;100.00;98987.41;4934550;28;20485;-80
2023/12/11 07:43:45;;;;;;;110.22;28.60;;;;;;;5.98;100.00;98975.59;4933865;29;20106;-80
2023/12/11 07:46:21;;;;;;;77.63;24.90;;;;;;;6.09;100.00;98989.25;4933861;28;20050;-81
2023/12/11 07:48:47;;;;;;;80.05;26.13;;;;;;;6.14;100.00;98994.00;4933495;29;20298;-79
2023/12/11 07:51:25;;;;;;;83.68;24.70;;;;;;;6.21;100.00;98989.66;4933496;28;20615;-78
2023/12/11 07:53:52;;;;;;;107.15;27.52;;;;;;;6.16;100.00;98984.06;4965713;28;20039;-78
2023/12/11 07:56:22;;;;;;;94.65;27.35;;;;;;;6.21;100.00;98983.53;4949963;28;20101;-78
2023/12/11 07:58:49;;;;;;;94.40;28.77;;;;;;;6.22;100.00;98982.53;4949950;28;20039;-81
2023/12/11 08:01:15;;;;;;;101.30;27.42;;;;;;;6.20;100.00;98977.38;4933188;28;20027;-80
2023/12/11 08:03:40;;;;;;;108.28;29.02;;;;;;;6.20;100.00;98977.38;4965027;28;20640;-79
2023/12/11 08:06:08;;;;;;;94.47;27.27;;;;;;;6.22;100.00;98974.56;4932690;28;20078;-81
2023/12/11 08:08:40;;;;;;;73.13;25.80;;;;;;;6.29;100.00;98978.97;4939221;28;20028;-80
2023/12/11 08:11:13;;;;;;;64.55;21.67;;;;;;;6.32;100.00;98983.09;4939765;28;20172;-80
2023/12/11 08:13:38;;;;;;;94.07;26.17;;;;;;;6.31;100.00;98984.09;4932515;29;20066;-80
2023/12/11 08:16:04;;;;;;;90.37;29.43;;;;;;;6.29;100.00;98981.63;4933240;29;20063;-81
2023/12/11 08:18:29;;;;;;;70.68;25.02;;;;;;;6.36;100.00;98975.63;4926135;29;20278;-80
2023/12/11 08:20:55;;;;;;;75.07;26.80;;;;;;;6.42;100.00;98980.22;4932826;29;20046;-79
2023/12/11 08:23:21;;;;;;;113.57;27.55;;;;;;;6.39;100.00;98983.22;4949676;28;20482;-80
2023/12/11 08:25:47;;;;;;;70.20;24.27;;;;;;;6.33;100.00;98977.63;4938515;28;20038;-80
2023/12/11 08:28:12;;;;;;;99.60;26.33;;;;;;;6.37;100.00;98980.75;4930726;28;20047;-81
2023/12/11 08:30:37;;;;;;;98.97;25.70;;;;;;;6.38;100.00;98993.00;4933398;29;20370;-81
2023/12/11 08:33:03;;;;;;;87.37;23.97;;;;;;;6.43;100.00;98993.28;4933164;29;20031;-80
2023/12/11 08:35:28;;;;;;;89.80;27.50;;;;;;;6.55;100.00;98991.03;4932631;28;20023;-80
2023/12/11 08:37:54;;;;;;;97.03;25.90;;;;;;;6.52;100.00;98992.22;4964972;28;20290;-81
2023/12/11 08:40:20;;;;;;;81.50;23.50;;;;;;;6.40;100.00;98984.88;4931859;28;20044;-80
2023/12/11 08:42:46;;;;;;;81.68;22.88;;;;;;;6.55;100.00;98991.03;4932524;29;20632;-79
2023/12/11 08:45:11;;;;;;;78.95;21.90;;;;;;;6.63;100.00;98998.91;4939542;28;20050;-80
2023/12/11 08:47:41;;;;;;;59.10;19.40;;;;;;;6.66;100.00;98993.25;4935785;29;20035;-81
2023/12/11 08:50:08;;;;;;;82.43;22.88;;;;;;;6.71;100.00;98996.19;4933480;28;20046;-81
2023/12/11 08:52:33;;;;;;;82.05;22.35;;;;;;;6.69;100.00;98992.88;4936483;29;20034;-80
2023/12/11 08:54:59;;;;;;;81.55;22.90;;;;;;;6.63;100.00;98987.50;4936864;29;20035;-80
2023/12/11 08:57:24;;;;;;;70.10;20.57;;;;;;;6.75;100.00;98992.16;4965677;28;20038;-80
2023/12/11 08:59:49;;;;;;;76.70;18.30;;;;;;;6.63;100.00;98990.97;4943665;29;20486;-80
2023/12/11 09:02:15;;;;;;;69.43;18.30;;;;;;;6.82;100.00;98996.75;4936133;28;20151;-79
2023/12/11 09:04:41;;;;;;;69.05;17.60;;;;;;;6.84;100.00;98994.75;4952598;28;20777;-80
2023/12/11 09:07:07;;;;;;;79.72;19.85;;;;;;;6.64;100.00;98982.00;4953409;28;20027;-81
2023/12/11 09:09:32;;;;;;;;;;;;;;;6.70;100.00;98986.59;4936544;29;20082;-81
2023/12/11 09:11:58;;;;;;;69.22;17.20;;;;;;;6.68;100.00;99001.84;4936100;29;20283;-80
2023/12/11 09:14:24;;;;;;;89.97;17.30;;;;;;;6.76;100.00;99001.75;4935254;28;20070;-80
2023/12/11 09:16:50;;;;;;;61.63;18.52;;;;;;;6.85;100.00;98997.22;4936549;29;20027;-80
2023/12/11 09:19:15;;;;;;;60.70;17.85;;;;;;;6.86;100.00;98992.72;4953581;28;20037;-79
2023/12/11 09:21:41;;;;;;;64.05;16.23;;;;;;;6.81;100.00;98995.91;4940745;28;20038;-81
2023/12/11 09:24:06;;;;;;;53.77;14.77;;;;;;;6.75;100.00;98981.56;4938140;29;20035;-79
2023/12/11 09:26:32;;;;;;;64.65;14.75;;;;;;;6.85;100.00;99001.69;4950084;28;20286;-79
2023/12/11 09:28:57;;;;;;;47.17;12.87;;;;;;;7.00;100.00;98999.03;4952019;28;20035;-80
2023/12/11 09:31:24;;;;;;;37.27;12.37;;;;;;;7.06;100.00;99003.63;4941660;28;20816;-80
2023/12/11 09:33:49;;;;;;;43.83;13.60;;;;;;;7.16;100.00;98998.88;4945835;28;20035;-80
2023/12/11 09:36:15;;;;;;;65.30;14.30;;;;;;;7.19;100.00;99001.19;4935408;28;20039;-80
2023/12/11 09:38:42;;;;;;;47.77;13.90;;;;;;;7.16;100.00;98985.59;4936660;29;20294;-79
2023/12/11 09:41:08;;;;;;;59.28;11.57;;;;;;;7.04;100.00;98984.41;4936420;28;20379;-80
2023/12/11 09:43:35;;;;;;;52.08;13.82;;;;;;;6.92;100.00;98976.09;4947371;28;20097;-81
2023/12/11 09:46:02;;;;;;;50.30;11.90;;;;;;;7.03;100.00;98983.59;4956290;28;20087;-79
2023/12/11 09:48:27;;;;;;;52.78;14.43;;;;;;;7.17;100.00;98993.38;4945711;28;20204;-80
2023/12/11 09:50:53;;;;;;;51.90;13.40;;;;;;;7.16;100.00;98991.75;4941280;28;20142;-79
2023/12/11 09:53:19;;;;;;;54.13;12.35;;;;;;;7.15;100.00;98991.94;4956726;28;20039;-79
2023/12/11 09:55:45;;;;;;;47.55;12.50;;;;;;;7.06;100.00;98985.88;4942534;29;20386;-80
2023/12/11 09:58:10;;;;;;;57.15;12.85;;;;;;;7.04;100.00;98984.41;4933330;28;20043;-80
2023/12/11 10:00:36;;;;;;;48.10;11.93;;;;;;;6.97;100.00;98981.66;4968102;28;20063;-79
2023/12/11 10:03:05;;;;;;;41.75;12.07;;;;;;;7.01;100.00;98993.56;4938618;29;20023;-79
2023/12/11 10:05:33;;;;;;;44.50;11.80;;;;;;;7.01;100.00;98990.91;4953879;28;20035;-79
2023/12/11 10:08:00;;;;;;;52.03;13.57;;;;;;;7.09;100.00;98993.47;4952347;28;20398;-79
2023/12/11 10:10:31;;;;;;;50.15;12.25;;;;;;;7.02;100.00;98981.94;4969795;28;20039;-79
2023/12/11 10:12:58;;;;;;;39.30;10.75;;;;;;;7.01;100.00;98990.91;4934175;29;20130;-79
2023/12/11 10:15:27;;;;;;;39.42;11.48;;;;;;;7.02;100.00;98992.56;4933274;28;20043;-79
2023/12/11 10:18:05;;;;;;;39.42;10.65;;;;;;;7.11;100.00;98983.50;4940546;29;20031;-79
2023/12/11 10:20:35;;;;;;;41.20;10.73;;;;;;;7.17;100.00;98989.91;4950635;28;20055;-79
2023/12/11 10:23:11;;;;;;;53.22;12.73;;;;;;;7.14;100.00;98985.81;4938710;28;20125;-80
2023/12/11 10:25:37;;;;;;;45.22;11.07;;;;;;;6.92;100.00;98984.03;4949616;28;20035;-78
2023/12/11 10:28:11;;;;;;;56.30;14.90;;;;;;;6.96;100.00;98980.84;4952923;28;20102;-79
2023/12/11 10:30:55;;;;;;;41.60;9.48;;;;;;;6.92;100.00;98984.88;4932956;29;20453;-79
2023/12/11 10:33:23;;;;;;;38.33;10.43;;;;;;;6.98;100.00;98986.81;4952631;28;20486;-79
2023/12/11 10:35:49;;;;;;;48.53;11.60;;;;;;;6.96;100.00;98977.38;4956165;28;20062;-79
2023/12/11 10:38:25;;;;;;;47.55;10.70;;;;;;;6.91;100.00;98977.94;4931026;28;20027;-78
2023/12/11 10:40:52;;;;;;;42.80;10.45;;;;;;;6.91;100.00;98980.56;4946026;28;20035;-78
2023/12/11 10:43:18;;;;;;;38.65;10.00;;;;;;;7.06;100.00;98985.06;4932989;28;20035;-78
2023/12/11 10:45:45;;;;;;;48.95;10.77;;;;;;;7.10;100.00;98979.22;4952393;28;20035;-78
2023/12/11 10:48:10;;;;;;;40.53;9.75;;;;;;;7.12;100.00;98979.84;4929837;28;20074;-78
2023/12/11 10:50:36;;;;;;;43.80;10.43;;;;;;;7.21;100.00;98980.59;4956979;28;20030;-77
2023/12/11 10:53:02;;;;;;;50.60;10.35;;;;;;;7.18;100.00;98972.97;4981992;28;20035;-77
2023/12/11 10:55:29;;;;;;;31.00;8.60;;;;;;;7.31;100.00;98978.47;4948478;28;20035;-78
2023/12/11 10:57:55;;;;;;;38.70;10.20;;;;;;;7.39;100.00;98973.03;4956548;28;20039;-77
2023/12/11 11:00:21;;;;;;;48.80;14.73;;;;;;;7.24;100.00;98977.56;4969890;28;20493;-78
2023/12/11 11:02:51;;;;;;;37.72;11.00;;;;;;;7.25;100.00;98976.53;4949522;28;20138;-77
2023/12/11 11:05:17;;;;;;;30.30;10.00;;;;;;;7.31;100.00;98975.81;4958342;28;20071;-78
2023/12/11 11:08:01;;;;;;;38.95;10.75;;;;;;;7.39;100.00;98969.56;4954721;28;20031;-79
2023/12/11 11:10:33;;;;;;;37.33;9.13;;;;;;;7.31;100.00;98973.16;4948356;28;20059;-78
2023/12/11 11:13:23;;;;;;;36.58;7.03;;;;;;;7.48;100.00;98976.44;4968246;28;20035;-78
2023/12/11 11:15:55;;;;;;;25.58;6.35;;;;;;;7.56;100.00;98978.13;4956239;28;20038;-78
2023/12/11 11:18:21;;;;;;;29.88;6.50;;;;;;;7.40;100.00;98969.41;4943606;28;20639;-79
2023/12/11 11:21:08;;;;;;;29.95;7.30;;;;;;;7.52;100.00;98975.06;4955998;28;20026;-80
2023/12/11 11:23:42;;;;;;;27.65;6.60;;;;;;;7.58;100.00;98971.63;4951706;28;20039;-79
2023/12/11 11:26:34;;;;;;;28.45;7.00;;;;;;;7.73;100.00;98970.81;4959788;28;20266;-79
2023/12/11 11:29:00;;;;;;;30.00;9.15;;;;;;;7.69;100.00;98969.53;4952679;28;20032;-80
2023/12/11 11:31:49;;;;;;;28.33;9.07;;;;;;;7.71;100.00;98970.16;4944387;28;20031;-80
2023/12/11 11:34:15;;;;;;;35.70;8.52;;;;;;;7.73;100.00;98968.97;4936104;28;20094;-80
2023/12/11 11:36:46;;;;;;;38.47;7.55;;;;;;;7.73;100.00;98966.31;4968720;28;20478;-81